Archival Weather

Dewar Lakes

Dewar Lakes, Canada (CWUW)

Report from: Friday, May 26, 2023 2:00 AM EDT
Current time: Monday, July 22, 2024 6:42 AM EDT

Current weather – Weather history – Daily summaries
Weather forecast

Present weatherSM
Temperature-16.0°C (3.2°F)
Wind chill-29.5°C (-21.1°F)
Dew point-18.0°C (-0.4°F)
Winds 25 kts (12.9 m/s, 28.8 mph) North-Northwest (330°)
Visibility0 ft. (0 m)
Altimeter29.47 in.Hg (998 mB)
Relative humidity84 %
Density altitude-3,371 ft. (-1,028 m)
Remarks Fully automated report
Flight conditions Low Instrument Meteorological Conditions
Raw dataCWUW 260600Z AUTO 33025KT ////SM ////// M16/M18 A2947
An error has occurred. This application may no longer respond until reloaded. Reload 🗙